sensor_id;sensor_type;location;lat;lon;timestamp;pressure;altitude;pressure_sealevel;temperature;humidity
47913;BME280;33676;51.006;17.180;2022-08-01T00:00:11;99938.02;;;15.02;87.26
47913;BME280;33676;51.006;17.180;2022-08-01T00:03:00;99937.90;;;15.00;87.27
47913;BME280;33676;51.006;17.180;2022-08-01T00:05:28;99936.30;;;14.97;87.39
47913;BME280;33676;51.006;17.180;2022-08-01T00:07:58;99934.34;;;14.95;87.75
47913;BME280;33676;51.006;17.180;2022-08-01T00:10:27;99936.62;;;14.94;88.10
47913;BME280;33676;51.006;17.180;2022-08-01T00:12:55;99931.36;;;14.92;88.26
47913;BME280;33676;51.006;17.180;2022-08-01T00:15:24;99931.70;;;14.88;88.49
47913;BME280;33676;51.006;17.180;2022-08-01T00:17:53;99931.36;;;14.84;88.56
47913;BME280;33676;51.006;17.180;2022-08-01T00:20:21;99927.50;;;14.79;88.54
47913;BME280;33676;51.006;17.180;2022-08-01T00:22:50;99924.66;;;14.74;88.54
47913;BME280;33676;51.006;17.180;2022-08-01T00:25:18;99922.32;;;14.70;88.63
47913;BME280;33676;51.006;17.180;2022-08-01T00:28:01;99924.79;;;14.65;88.68
47913;BME280;33676;51.006;17.180;2022-08-01T00:30:31;99928.58;;;14.60;88.76
47913;BME280;33676;51.006;17.180;2022-08-01T00:33:00;99930.45;;;14.57;89.12
47913;BME280;33676;51.006;17.180;2022-08-01T00:35:29;99926.35;;;14.54;89.27
47913;BME280;33676;51.006;17.180;2022-08-01T00:37:58;99926.41;;;14.52;89.58
47913;BME280;33676;51.006;17.180;2022-08-01T00:40:26;99929.42;;;14.50;89.68
47913;BME280;33676;51.006;17.180;2022-08-01T00:42:55;99926.42;;;14.46;89.61
47913;BME280;33676;51.006;17.180;2022-08-01T00:45:24;99928.77;;;14.42;89.81
47913;BME280;33676;51.006;17.180;2022-08-01T00:47:52;99925.35;;;14.39;89.96
47913;BME280;33676;51.006;17.180;2022-08-01T00:50:23;99921.13;;;14.36;89.84
47913;BME280;33676;51.006;17.180;2022-08-01T00:52:53;99918.63;;;14.33;90.01
47913;BME280;33676;51.006;17.180;2022-08-01T00:55:22;99915.19;;;14.30;90.14
47913;BME280;33676;51.006;17.180;2022-08-01T00:57:51;99912.42;;;14.28;90.30
47913;BME280;33676;51.006;17.180;2022-08-01T01:00:35;99911.05;;;14.26;90.49
47913;BME280;33676;51.006;17.180;2022-08-01T01:03:23;99914.63;;;14.23;90.71
47913;BME280;33676;51.006;17.180;2022-08-01T01:12:13;99904.67;;;14.19;90.89
47913;BME280;33676;51.006;17.180;2022-08-01T01:15:10;99908.40;;;14.17;90.96
47913;BME280;33676;51.006;17.180;2022-08-01T01:17:53;99903.70;;;14.15;91.19
47913;BME280;33676;51.006;17.180;2022-08-01T01:20:32;99902.63;;;14.13;91.30
47913;BME280;33676;51.006;17.180;2022-08-01T01:23:40;99899.61;;;14.12;91.32
47913;BME280;33676;51.006;17.180;2022-08-01T01:29:21;99902.66;;;14.10;91.57
47913;BME280;33676;51.006;17.180;2022-08-01T01:32:08;99903.83;;;14.08;91.82
47913;BME280;33676;51.006;17.180;2022-08-01T01:34:44;99901.81;;;14.07;91.84
47913;BME280;33676;51.006;17.180;2022-08-01T01:37:23;99901.95;;;14.08;92.13
47913;BME280;33676;51.006;17.180;2022-08-01T01:39:54;99898.27;;;14.08;92.39
47913;BME280;33676;51.006;17.180;2022-08-01T01:42:25;99896.95;;;14.09;92.47
47913;BME280;33676;51.006;17.180;2022-08-01T01:44:56;99891.81;;;14.09;92.60
47913;BME280;33676;51.006;17.180;2022-08-01T01:47:25;99888.56;;;14.10;92.63
47913;BME280;33676;51.006;17.180;2022-08-01T01:49:57;99884.09;;;14.11;92.58
47913;BME280;33676;51.006;17.180;2022-08-01T01:52:27;99879.50;;;14.11;92.77
47913;BME280;33676;51.006;17.180;2022-08-01T01:55:00;99879.27;;;14.11;92.66
47913;BME280;33676;51.006;17.180;2022-08-01T01:57:32;99882.24;;;14.11;92.86
47913;BME280;33676;51.006;17.180;2022-08-01T02:00:01;99879.77;;;14.12;92.95
47913;BME280;33676;51.006;17.180;2022-08-01T02:02:30;99880.50;;;14.12;93.10
47913;BME280;33676;51.006;17.180;2022-08-01T02:05:00;99879.58;;;14.12;93.11
47913;BME280;33676;51.006;17.180;2022-08-01T02:07:30;99881.48;;;14.12;93.22
47913;BME280;33676;51.006;17.180;2022-08-01T02:10:02;99881.39;;;14.11;93.33
47913;BME280;33676;51.006;17.180;2022-08-01T02:12:39;99877.41;;;14.12;93.41
47913;BME280;33676;51.006;17.180;2022-08-01T02:15:11;99875.84;;;14.14;93.58
47913;BME280;33676;51.006;17.180;2022-08-01T02:17:44;99877.77;;;14.17;93.76
47913;BME280;33676;51.006;17.180;2022-08-01T02:20:15;99879.06;;;14.20;94.04
47913;BME280;33676;51.006;17.180;2022-08-01T02:22:52;99879.88;;;14.23;94.00
47913;BME280;33676;51.006;17.180;2022-08-01T02:25:46;99884.77;;;14.27;94.08
47913;BME280;33676;51.006;17.180;2022-08-01T02:28:52;99883.73;;;14.30;94.07
47913;BME280;33676;51.006;17.180;2022-08-01T02:31:23;99881.71;;;14.33;94.11
47913;BME280;33676;51.006;17.180;2022-08-01T02:34:01;99880.66;;;14.35;94.08
47913;BME280;33676;51.006;17.180;2022-08-01T02:36:34;99878.30;;;14.35;94.08
47913;BME280;33676;51.006;17.180;2022-08-01T02:39:11;99881.71;;;14.34;94.15
47913;BME280;33676;51.006;17.180;2022-08-01T02:41:47;99879.67;;;14.34;94.15
47913;BME280;33676;51.006;17.180;2022-08-01T02:44:26;99880.58;;;14.32;94.11
47913;BME280;33676;51.006;17.180;2022-08-01T02:47:01;99882.45;;;14.31;93.96
47913;BME280;33676;51.006;17.180;2022-08-01T02:49:37;99882.56;;;14.30;94.00
47913;BME280;33676;51.006;17.180;2022-08-01T02:52:12;99880.91;;;14.29;93.98
47913;BME280;33676;51.006;17.180;2022-08-01T02:54:49;99879.85;;;14.29;94.26
47913;BME280;33676;51.006;17.180;2022-08-01T02:57:20;99878.70;;;14.28;94.24
47913;BME280;33676;51.006;17.180;2022-08-01T02:59:55;99875.73;;;14.28;94.38
47913;BME280;33676;51.006;17.180;2022-08-01T03:02:29;99876.04;;;14.26;94.25
47913;BME280;33676;51.006;17.180;2022-08-01T03:05:00;99876.39;;;14.24;94.32
47913;BME280;33676;51.006;17.180;2022-08-01T03:07:30;99880.48;;;14.22;94.43
47913;BME280;33676;51.006;17.180;2022-08-01T03:10:06;99876.88;;;14.20;94.51
47913;BME280;33676;51.006;17.180;2022-08-01T03:12:36;99875.77;;;14.18;94.63
47913;BME280;33676;51.006;17.180;2022-08-01T03:15:09;99878.09;;;14.18;94.81
47913;BME280;33676;51.006;17.180;2022-08-01T03:17:40;99881.33;;;14.19;95.07
47913;BME280;33676;51.006;17.180;2022-08-01T03:20:14;99878.67;;;14.21;95.22
47913;BME280;33676;51.006;17.180;2022-08-01T03:22:44;99880.41;;;14.23;95.53
47913;BME280;33676;51.006;17.180;2022-08-01T03:25:16;99880.52;;;14.25;95.72
47913;BME280;33676;51.006;17.180;2022-08-01T03:27:51;99881.50;;;14.28;95.88
47913;BME280;33676;51.006;17.180;2022-08-01T03:30:25;99880.52;;;14.31;96.00
47913;BME280;33676;51.006;17.180;2022-08-01T03:32:55;99879.94;;;14.35;96.19
47913;BME280;33676;51.006;17.180;2022-08-01T03:35:52;99876.82;;;14.39;96.26
47913;BME280;33676;51.006;17.180;2022-08-01T03:38:25;99876.38;;;14.44;96.46
47913;BME280;33676;51.006;17.180;2022-08-01T03:41:09;99878.09;;;14.48;96.55
47913;BME280;33676;51.006;17.180;2022-08-01T03:43:45;99878.73;;;14.54;96.67
47913;BME280;33676;51.006;17.180;2022-08-01T03:46:26;99878.81;;;14.60;96.84
47913;BME280;33676;51.006;17.180;2022-08-01T03:49:00;99876.16;;;14.67;97.02
47913;BME280;33676;51.006;17.180;2022-08-01T03:51:32;99876.23;;;14.75;97.22
47913;BME280;33676;51.006;17.180;2022-08-01T03:54:03;99877.08;;;14.82;97.06
47913;BME280;33676;51.006;17.180;2022-08-01T03:56:34;99879.60;;;14.90;97.40
47913;BME280;33676;51.006;17.180;2022-08-01T03:59:05;99877.23;;;14.98;97.37
47913;BME280;33676;51.006;17.180;2022-08-01T04:01:34;99877.23;;;15.06;97.42
47913;BME280;33676;51.006;17.180;2022-08-01T04:04:03;99880.29;;;15.14;97.57
47913;BME280;33676;51.006;17.180;2022-08-01T04:06:38;99879.83;;;15.20;97.72
47913;BME280;33676;51.006;17.180;2022-08-01T04:09:07;99882.04;;;15.28;97.66
47913;BME280;33676;51.006;17.180;2022-08-01T04:11:41;99886.19;;;15.35;97.74
47913;BME280;33676;51.006;17.180;2022-08-01T04:14:10;99883.77;;;15.41;97.97
47913;BME280;33676;51.006;17.180;2022-08-01T04:16:38;99890.17;;;15.48;97.91
47913;BME280;33676;51.006;17.180;2022-08-01T04:19:07;99897.00;;;15.53;97.93
47913;BME280;33676;51.006;17.180;2022-08-01T04:21:36;99902.64;;;15.56;97.64
47913;BME280;33676;51.006;17.180;2022-08-01T04:24:13;99899.64;;;15.61;97.47
47913;BME280;33676;51.006;17.180;2022-08-01T04:26:44;99905.66;;;15.64;97.37
47913;BME280;33676;51.006;17.180;2022-08-01T04:29:14;99903.79;;;15.69;97.35
47913;BME280;33676;51.006;17.180;2022-08-01T04:31:48;99902.19;;;15.74;97.53
47913;BME280;33676;51.006;17.180;2022-08-01T04:34:20;99899.73;;;15.81;97.47
47913;BME280;33676;51.006;17.180;2022-08-01T04:36:52;99897.59;;;15.86;97.58
47913;BME280;33676;51.006;17.180;2022-08-01T04:39:26;99894.79;;;15.91;97.32
47913;BME280;33676;51.006;17.180;2022-08-01T04:41:58;99896.35;;;15.94;97.33
47913;BME280;33676;51.006;17.180;2022-08-01T04:44:28;99893.31;;;15.98;97.26
47913;BME280;33676;51.006;17.180;2022-08-01T04:47:01;99893.29;;;16.00;97.39
47913;BME280;33676;51.006;17.180;2022-08-01T04:49:34;99892.40;;;16.03;97.31
47913;BME280;33676;51.006;17.180;2022-08-01T04:52:16;99892.44;;;16.06;97.38
47913;BME280;33676;51.006;17.180;2022-08-01T04:54:51;99891.88;;;16.09;97.32
47913;BME280;33676;51.006;17.180;2022-08-01T04:57:20;99893.44;;;16.13;97.47
47913;BME280;33676;51.006;17.180;2022-08-01T04:59:48;99896.71;;;16.17;97.27
47913;BME280;33676;51.006;17.180;2022-08-01T05:02:21;99892.39;;;16.21;97.41
47913;BME280;33676;51.006;17.180;2022-08-01T05:04:49;99890.64;;;16.26;97.52
47913;BME280;33676;51.006;17.180;2022-08-01T05:07:18;99892.43;;;16.30;97.55
47913;BME280;33676;51.006;17.180;2022-08-01T05:09:46;99896.30;;;16.35;97.69
47913;BME280;33676;51.006;17.180;2022-08-01T05:12:16;99897.71;;;16.40;97.67
47913;BME280;33676;51.006;17.180;2022-08-01T05:14:44;99899.80;;;16.44;97.66
47913;BME280;33676;51.006;17.180;2022-08-01T05:17:14;99899.33;;;16.46;97.65
47913;BME280;33676;51.006;17.180;2022-08-01T05:19:43;99895.64;;;16.50;97.75
47913;BME280;33676;51.006;17.180;2022-08-01T05:22:11;99896.89;;;16.52;97.64
47913;BME280;33676;51.006;17.180;2022-08-01T05:24:40;99891.66;;;16.55;97.66
47913;BME280;33676;51.006;17.180;2022-08-01T05:27:09;99897.18;;;16.60;97.78
47913;BME280;33676;51.006;17.180;2022-08-01T05:29:40;99894.29;;;16.64;97.83
47913;BME280;33676;51.006;17.180;2022-08-01T05:32:12;99890.48;;;16.68;97.87
47913;BME280;33676;51.006;17.180;2022-08-01T05:34:40;99888.50;;;16.70;97.73
47913;BME280;33676;51.006;17.180;2022-08-01T05:37:09;99883.63;;;16.72;97.67
47913;BME280;33676;51.006;17.180;2022-08-01T05:39:38;99887.50;;;16.75;97.59
47913;BME280;33676;51.006;17.180;2022-08-01T05:42:07;99889.25;;;16.80;97.63
47913;BME280;33676;51.006;17.180;2022-08-01T05:44:36;99889.97;;;16.85;97.81
47913;BME280;33676;51.006;17.180;2022-08-01T05:47:04;99890.52;;;16.90;97.89
47913;BME280;33676;51.006;17.180;2022-08-01T05:49:33;99893.29;;;16.95;97.98
47913;BME280;33676;51.006;17.180;2022-08-01T05:52:02;99891.98;;;17.00;98.13
47913;BME280;33676;51.006;17.180;2022-08-01T05:54:31;99893.98;;;17.08;98.26
47913;BME280;33676;51.006;17.180;2022-08-01T05:57:00;99888.80;;;17.13;98.40
47913;BME280;33676;51.006;17.180;2022-08-01T05:59:30;99889.88;;;17.18;98.55
47913;BME280;33676;51.006;17.180;2022-08-01T06:01:59;99892.91;;;17.23;98.42
47913;BME280;33676;51.006;17.180;2022-08-01T06:04:27;99893.55;;;17.29;98.41
47913;BME280;33676;51.006;17.180;2022-08-01T06:06:56;99897.48;;;17.35;98.63
47913;BME280;33676;51.006;17.180;2022-08-01T06:09:24;99896.79;;;17.41;98.67
47913;BME280;33676;51.006;17.180;2022-08-01T06:11:53;99898.33;;;17.44;98.40
47913;BME280;33676;51.006;17.180;2022-08-01T06:14:22;99899.71;;;17.47;98.43
47913;BME280;33676;51.006;17.180;2022-08-01T06:16:50;99899.19;;;17.54;98.43
47913;BME280;33676;51.006;17.180;2022-08-01T06:19:19;99893.11;;;17.61;98.47
47913;BME280;33676;51.006;17.180;2022-08-01T06:21:47;99895.23;;;17.72;98.76
47913;BME280;33676;51.006;17.180;2022-08-01T06:24:16;99894.34;;;17.84;98.88
47913;BME280;33676;51.006;17.180;2022-08-01T06:26:44;99898.13;;;17.96;98.93
47913;BME280;33676;51.006;17.180;2022-08-01T06:29:13;99896.33;;;18.07;98.97
47913;BME280;33676;51.006;17.180;2022-08-01T06:31:42;99898.91;;;18.19;99.06
47913;BME280;33676;51.006;17.180;2022-08-01T06:34:10;99902.30;;;18.33;99.09
47913;BME280;33676;51.006;17.180;2022-08-01T06:36:39;99903.23;;;18.44;99.11
47913;BME280;33676;51.006;17.180;2022-08-01T06:39:07;99910.02;;;18.56;99.12
47913;BME280;33676;51.006;17.180;2022-08-01T06:41:36;99906.80;;;18.71;99.13
47913;BME280;33676;51.006;17.180;2022-08-01T06:44:04;99904.20;;;18.86;98.99
47913;BME280;33676;51.006;17.180;2022-08-01T06:46:34;99901.86;;;18.99;98.72
47913;BME280;33676;51.006;17.180;2022-08-01T06:49:04;99902.68;;;19.13;98.53
47913;BME280;33676;51.006;17.180;2022-08-01T06:51:33;99907.34;;;19.27;98.59
47913;BME280;33676;51.006;17.180;2022-08-01T06:54:02;99904.81;;;19.43;98.61
47913;BME280;33676;51.006;17.180;2022-08-01T06:56:31;99903.45;;;19.60;98.79
47913;BME280;33676;51.006;17.180;2022-08-01T06:58:59;99902.96;;;19.76;98.86
47913;BME280;33676;51.006;17.180;2022-08-01T07:01:29;99901.02;;;19.92;98.80
47913;BME280;33676;51.006;17.180;2022-08-01T07:04:03;99903.07;;;20.08;98.72
47913;BME280;33676;51.006;17.180;2022-08-01T07:06:32;99904.08;;;20.26;98.79
47913;BME280;33676;51.006;17.180;2022-08-01T07:09:00;99903.18;;;20.43;98.63
47913;BME280;33676;51.006;17.180;2022-08-01T07:11:39;99900.89;;;20.63;98.59
47913;BME280;33676;51.006;17.180;2022-08-01T07:14:08;99900.20;;;20.83;98.45
47913;BME280;33676;51.006;17.180;2022-08-01T07:16:36;99902.67;;;21.05;98.22
47913;BME280;33676;51.006;17.180;2022-08-01T07:19:05;99904.83;;;21.26;97.58
47913;BME280;33676;51.006;17.180;2022-08-01T07:21:34;99907.66;;;21.48;97.46
47913;BME280;33676;51.006;17.180;2022-08-01T07:24:10;99908.20;;;21.69;96.75
47913;BME280;33676;51.006;17.180;2022-08-01T07:26:46;99906.52;;;21.89;96.26
47913;BME280;33676;51.006;17.180;2022-08-01T07:29:26;99907.83;;;22.10;95.96
47913;BME280;33676;51.006;17.180;2022-08-01T07:31:57;99910.12;;;22.28;95.17
47913;BME280;33676;51.006;17.180;2022-08-01T07:34:26;99911.63;;;22.43;94.45
47913;BME280;33676;51.006;17.180;2022-08-01T07:36:54;99911.78;;;22.57;93.20
47913;BME280;33676;51.006;17.180;2022-08-01T07:39:23;99917.05;;;22.66;92.58
47913;BME280;33676;51.006;17.180;2022-08-01T07:41:51;99915.16;;;22.73;91.65
47913;BME280;33676;51.006;17.180;2022-08-01T07:44:35;99919.83;;;22.83;91.31
47913;BME280;33676;51.006;17.180;2022-08-01T07:47:05;99920.83;;;22.92;90.49
47913;BME280;33676;51.006;17.180;2022-08-01T07:49:34;99919.83;;;23.01;89.98
47913;BME280;33676;51.006;17.180;2022-08-01T07:52:08;99918.15;;;23.12;89.66
47913;BME280;33676;51.006;17.180;2022-08-01T07:54:37;99916.19;;;23.24;89.03
47913;BME280;33676;51.006;17.180;2022-08-01T07:57:05;99914.09;;;23.36;88.87
47913;BME280;33676;51.006;17.180;2022-08-01T07:59:35;99917.40;;;23.52;88.91
47913;BME280;33676;51.006;17.180;2022-08-01T08:02:03;99909.01;;;23.66;88.08
47913;BME280;33676;51.006;17.180;2022-08-01T08:04:33;99909.84;;;23.81;87.42
47913;BME280;33676;51.006;17.180;2022-08-01T08:07:02;99912.61;;;23.93;86.67
47913;BME280;33676;51.006;17.180;2022-08-01T08:09:31;99916.77;;;24.03;86.09
47913;BME280;33676;51.006;17.180;2022-08-01T08:12:05;99919.60;;;24.13;85.71
47913;BME280;33676;51.006;17.180;2022-08-01T08:14:35;99916.33;;;24.23;85.12
47913;BME280;33676;51.006;17.180;2022-08-01T08:17:05;99918.03;;;24.31;84.78
47913;BME280;33676;51.006;17.180;2022-08-01T08:19:34;99920.48;;;24.38;83.86
47913;BME280;33676;51.006;17.180;2022-08-01T08:22:09;99922.54;;;24.43;83.12
47913;BME280;33676;51.006;17.180;2022-08-01T08:24:38;99921.42;;;24.48;82.32
47913;BME280;33676;51.006;17.180;2022-08-01T08:27:13;99927.66;;;24.51;82.19
47913;BME280;33676;51.006;17.180;2022-08-01T08:29:43;99929.13;;;24.55;81.31
47913;BME280;33676;51.006;17.180;2022-08-01T08:32:12;99931.48;;;24.59;81.41
47913;BME280;33676;51.006;17.180;2022-08-01T08:34:41;99937.23;;;24.63;80.97
47913;BME280;33676;51.006;17.180;2022-08-01T08:37:10;99936.38;;;24.65;80.75
47913;BME280;33676;51.006;17.180;2022-08-01T08:39:39;99938.02;;;24.66;80.26
47913;BME280;33676;51.006;17.180;2022-08-01T08:42:11;99939.23;;;24.69;80.34
47913;BME280;33676;51.006;17.180;2022-08-01T08:44:42;99941.64;;;24.73;80.23
47913;BME280;33676;51.006;17.180;2022-08-01T08:47:13;99939.17;;;24.76;79.78
47913;BME280;33676;51.006;17.180;2022-08-01T08:49:51;99944.84;;;24.80;79.75
47913;BME280;33676;51.006;17.180;2022-08-01T08:52:21;99950.27;;;24.87;79.37
47913;BME280;33676;51.006;17.180;2022-08-01T08:54:51;99949.27;;;24.88;79.07
47913;BME280;33676;51.006;17.180;2022-08-01T08:57:20;99949.32;;;24.96;79.14
47913;BME280;33676;51.006;17.180;2022-08-01T08:59:49;99948.33;;;25.09;79.49
47913;BME280;33676;51.006;17.180;2022-08-01T09:02:21;99949.09;;;25.23;79.89
47913;BME280;33676;51.006;17.180;2022-08-01T09:04:50;99955.10;;;25.36;79.11
47913;BME280;33676;51.006;17.180;2022-08-01T09:07:19;99955.52;;;25.39;78.60
47913;BME280;33676;51.006;17.180;2022-08-01T09:09:48;99958.13;;;25.36;77.13
47913;BME280;33676;51.006;17.180;2022-08-01T09:12:19;99960.71;;;25.29;76.57
47913;BME280;33676;51.006;17.180;2022-08-01T09:14:48;99968.99;;;25.20;75.90
47913;BME280;33676;51.006;17.180;2022-08-01T09:17:19;99964.50;;;25.10;76.47
47913;BME280;33676;51.006;17.180;2022-08-01T09:19:52;99965.25;;;25.04;76.64
47913;BME280;33676;51.006;17.180;2022-08-01T09:22:24;99966.17;;;25.03;77.11
47913;BME280;33676;51.006;17.180;2022-08-01T09:25:09;99967.75;;;25.02;77.26
47913;BME280;33676;51.006;17.180;2022-08-01T09:27:39;99972.48;;;25.04;77.37
47913;BME280;33676;51.006;17.180;2022-08-01T09:30:15;99976.31;;;25.04;78.43
47913;BME280;33676;51.006;17.180;2022-08-01T09:33:02;99974.60;;;24.98;78.65
47913;BME280;33676;51.006;17.180;2022-08-01T09:35:54;99968.44;;;24.93;79.13
47913;BME280;33676;51.006;17.180;2022-08-01T09:38:25;99970.09;;;24.98;79.37
47913;BME280;33676;51.006;17.180;2022-08-01T09:41:00;99969.05;;;25.04;79.02
47913;BME280;33676;51.006;17.180;2022-08-01T09:43:31;99966.52;;;25.05;78.34
47913;BME280;33676;51.006;17.180;2022-08-01T09:46:13;99967.23;;;25.08;78.13
47913;BME280;33676;51.006;17.180;2022-08-01T09:49:05;99965.09;;;25.13;77.61
47913;BME280;33676;51.006;17.180;2022-08-01T09:51:39;99967.27;;;25.23;77.55
47913;BME280;33676;51.006;17.180;2022-08-01T09:54:31;99965.87;;;25.30;77.16
47913;BME280;33676;51.006;17.180;2022-08-01T09:57:18;99957.05;;;25.37;77.18
47913;BME280;33676;51.006;17.180;2022-08-01T09:59:51;99956.64;;;25.49;77.04
47913;BME280;33676;51.006;17.180;2022-08-01T10:02:38;99957.45;;;25.53;76.40
47913;BME280;33676;51.006;17.180;2022-08-01T10:05:10;99961.08;;;25.57;76.33
47913;BME280;33676;51.006;17.180;2022-08-01T10:08:00;99954.29;;;25.67;76.68
47913;BME280;33676;51.006;17.180;2022-08-01T10:10:35;99955.34;;;25.87;77.20
47913;BME280;33676;51.006;17.180;2022-08-01T10:13:05;99958.20;;;26.03;76.63
47913;BME280;33676;51.006;17.180;2022-08-01T10:15:37;99952.83;;;26.24;77.02
47913;BME280;33676;51.006;17.180;2022-08-01T10:18:08;99948.09;;;26.51;77.36
47913;BME280;33676;51.006;17.180;2022-08-01T10:20:54;99944.20;;;26.77;76.84
47913;BME280;33676;51.006;17.180;2022-08-01T10:23:26;99945.14;;;27.05;76.93
47913;BME280;33676;51.006;17.180;2022-08-01T10:26:10;99945.94;;;27.35;76.34
47913;BME280;33676;51.006;17.180;2022-08-01T10:28:40;99949.08;;;27.42;75.51
47913;BME280;33676;51.006;17.180;2022-08-01T10:31:13;99949.96;;;27.46;75.49
47913;BME280;33676;51.006;17.180;2022-08-01T10:33:42;99945.15;;;27.52;75.17
47913;BME280;33676;51.006;17.180;2022-08-01T10:36:21;99946.36;;;27.49;73.93
47913;BME280;33676;51.006;17.180;2022-08-01T10:38:54;99941.86;;;27.58;74.27
47913;BME280;33676;51.006;17.180;2022-08-01T10:41:25;99944.77;;;27.77;74.41
47913;BME280;33676;51.006;17.180;2022-08-01T10:43:55;99948.64;;;27.90;73.86
47913;BME280;33676;51.006;17.180;2022-08-01T10:46:24;99945.41;;;28.01;73.54
47913;BME280;33676;51.006;17.180;2022-08-01T10:51:28;99944.59;;;28.39;73.01
47913;BME280;33676;51.006;17.180;2022-08-01T10:54:17;99945.09;;;28.50;72.44
47913;BME280;33676;51.006;17.180;2022-08-01T10:56:51;99944.52;;;28.57;72.47
47913;BME280;33676;51.006;17.180;2022-08-01T10:59:27;99946.23;;;28.76;72.51
47913;BME280;33676;51.006;17.180;2022-08-01T11:02:31;99947.52;;;28.93;71.51
47913;BME280;33676;51.006;17.180;2022-08-01T11:05:20;99947.39;;;28.89;71.25
47913;BME280;33676;51.006;17.180;2022-08-01T11:07:53;99947.34;;;28.85;70.71
47913;BME280;33676;51.006;17.180;2022-08-01T11:10:40;99952.73;;;29.00;71.37
47913;BME280;33676;51.006;17.180;2022-08-01T11:13:12;99949.30;;;29.19;71.11
47913;BME280;33676;51.006;17.180;2022-08-01T11:15:41;99945.20;;;29.45;71.11
47913;BME280;33676;51.006;17.180;2022-08-01T11:21:00;99941.75;;;29.88;71.09
47913;BME280;33676;51.006;17.180;2022-08-01T11:23:51;99943.05;;;30.06;70.36
47913;BME280;33676;51.006;17.180;2022-08-01T11:26:22;99937.17;;;30.21;69.92
47913;BME280;33676;51.006;17.180;2022-08-01T11:29:15;99930.46;;;30.27;69.81
47913;BME280;33676;51.006;17.180;2022-08-01T11:31:50;99939.57;;;30.29;68.34
47913;BME280;33676;51.006;17.180;2022-08-01T11:34:53;99933.70;;;30.20;67.89
47913;BME280;33676;51.006;17.180;2022-08-01T11:37:27;99930.04;;;30.22;68.10
47913;BME280;33676;51.006;17.180;2022-08-01T11:40:22;99930.35;;;30.21;67.86
47913;BME280;33676;51.006;17.180;2022-08-01T11:43:18;99929.16;;;30.12;67.66
47913;BME280;33676;51.006;17.180;2022-08-01T11:45:52;99931.92;;;30.02;67.34
47913;BME280;33676;51.006;17.180;2022-08-01T11:48:24;99930.79;;;29.84;67.51
47913;BME280;33676;51.006;17.180;2022-08-01T11:50:56;99935.50;;;29.60;67.06
47913;BME280;33676;51.006;17.180;2022-08-01T11:53:29;99937.22;;;29.31;67.20
47913;BME280;33676;51.006;17.180;2022-08-01T11:55:58;99937.84;;;29.13;67.44
47913;BME280;33676;51.006;17.180;2022-08-01T11:58:28;99937.11;;;29.06;67.63
47913;BME280;33676;51.006;17.180;2022-08-01T12:00:58;99938.28;;;28.97;67.70
47913;BME280;33676;51.006;17.180;2022-08-01T12:03:30;99936.97;;;28.92;68.08
47913;BME280;33676;51.006;17.180;2022-08-01T12:06:01;99938.73;;;28.94;68.24
47913;BME280;33676;51.006;17.180;2022-08-01T12:08:33;99938.23;;;28.97;68.08
47913;BME280;33676;51.006;17.180;2022-08-01T12:11:04;99937.63;;;29.08;68.16
47913;BME280;33676;51.006;17.180;2022-08-01T12:13:43;99936.38;;;29.13;67.77
47913;BME280;33676;51.006;17.180;2022-08-01T12:16:13;99933.02;;;29.16;67.82
47913;BME280;33676;51.006;17.180;2022-08-01T12:18:43;99925.60;;;29.23;68.01
47913;BME280;33676;51.006;17.180;2022-08-01T12:21:11;99932.17;;;29.40;68.21
47913;BME280;33676;51.006;17.180;2022-08-01T12:23:40;99925.17;;;29.51;68.07
47913;BME280;33676;51.006;17.180;2022-08-01T12:26:09;99925.48;;;29.70;67.85
47913;BME280;33676;51.006;17.180;2022-08-01T12:28:56;99922.92;;;29.91;67.72
47913;BME280;33676;51.006;17.180;2022-08-01T12:31:34;99925.29;;;30.29;67.68
47913;BME280;33676;51.006;17.180;2022-08-01T12:34:26;99921.73;;;30.85;67.93
47913;BME280;33676;51.006;17.180;2022-08-01T12:36:59;99916.61;;;31.53;67.41
47913;BME280;33676;51.006;17.180;2022-08-01T12:39:34;99913.73;;;32.08;66.86
47913;BME280;33676;51.006;17.180;2022-08-01T12:42:08;99917.54;;;32.66;66.28
47913;BME280;33676;51.006;17.180;2022-08-01T12:44:40;99914.34;;;33.14;65.63
47913;BME280;33676;51.006;17.180;2022-08-01T12:47:10;99908.85;;;33.44;64.89
47913;BME280;33676;51.006;17.180;2022-08-01T12:49:41;99914.96;;;33.38;63.32
47913;BME280;33676;51.006;17.180;2022-08-01T12:52:11;99920.29;;;33.07;62.85
47913;BME280;33676;51.006;17.180;2022-08-01T12:57:44;99920.85;;;32.36;62.15
47913;BME280;33676;51.006;17.180;2022-08-01T13:00:18;99923.02;;;31.96;61.86
47913;BME280;33676;51.006;17.180;2022-08-01T13:02:50;99924.88;;;31.57;62.12
47913;BME280;33676;51.006;17.180;2022-08-01T13:05:19;99927.22;;;31.24;62.77
47913;BME280;33676;51.006;17.180;2022-08-01T13:07:50;99924.05;;;30.93;62.61
47913;BME280;33676;51.006;17.180;2022-08-01T13:10:29;99926.67;;;30.63;62.96
47913;BME280;33676;51.006;17.180;2022-08-01T13:12:58;99916.27;;;30.49;63.20
47913;BME280;33676;51.006;17.180;2022-08-01T13:15:33;99916.92;;;30.63;63.76
47913;BME280;33676;51.006;17.180;2022-08-01T13:18:23;99917.48;;;31.07;64.65
47913;BME280;33676;51.006;17.180;2022-08-01T13:24:09;99920.14;;;31.43;63.82
47913;BME280;33676;51.006;17.180;2022-08-01T13:26:46;99916.13;;;31.29;63.25
47913;BME280;33676;51.006;17.180;2022-08-01T13:29:21;99916.83;;;31.15;62.56
47913;BME280;33676;51.006;17.180;2022-08-01T13:31:51;99917.08;;;30.86;62.31
47913;BME280;33676;51.006;17.180;2022-08-01T13:34:33;99917.27;;;30.64;62.47
47913;BME280;33676;51.006;17.180;2022-08-01T13:37:02;99921.27;;;30.58;62.61
47913;BME280;33676;51.006;17.180;2022-08-01T13:39:31;99921.03;;;30.78;62.58
47913;BME280;33676;51.006;17.180;2022-08-01T13:42:14;99922.83;;;31.35;63.02